Time;durP1;ratioP1;P1;durP2;ratioP2;P2;SDS_P1;SDS_P2;PMS_P1;PMS_P2;Temp;Humidity;BMP_temperature;BMP_pressure;BME280_temperature;BME280_humidity;BME280_pressure;Samples;Min_cycle;Max_cycle;Signal;HPM_P1;HPM_P2
2023/09/18 00:01:08;;;;;;;39.23;37.80;;;25.00;99.90;;;;;;5051324;28;20527;-53
2023/09/18 00:03:34;;;;;;;40.13;38.63;;;25.00;99.90;;;;;;5051365;28;20451;-54
2023/09/18 00:06:01;;;;;;;44.00;42.40;;;25.00;99.90;;;;;;5051467;28;20472;-56
2023/09/18 00:08:30;;;;;;;37.90;36.60;;;25.00;99.90;;;;;;5044723;28;20487;-53
2023/09/18 00:10:57;;;;;;;39.70;38.17;;;25.00;99.90;;;;;;5035650;28;20488;-55
2023/09/18 00:13:23;;;;;;;38.87;37.37;;;24.90;99.90;;;;;;5051176;28;20501;-57
2023/09/18 00:15:55;;;;;;;37.17;35.87;;;24.90;99.90;;;;;;5051126;28;20479;-56
2023/09/18 00:18:22;;;;;;;39.20;37.70;;;24.90;99.90;;;;;;5044664;28;20555;-57
2023/09/18 00:20:51;;;;;;;38.93;37.33;;;24.90;99.90;;;;;;5050672;28;20504;-56
2023/09/18 00:23:18;;;;;;;38.10;36.63;;;24.90;99.90;;;;;;5051164;28;20437;-54
2023/09/18 00:25:47;;;;;;;39.47;37.80;;;24.80;99.90;;;;;;5051126;28;20960;-53
2023/09/18 00:28:13;;;;;;;39.07;37.50;;;24.80;99.90;;;;;;5044899;28;20484;-57
2023/09/18 00:30:48;;;;;;;37.07;35.57;;;24.80;99.90;;;;;;5050822;28;20437;-56
2023/09/18 00:33:15;;;;;;;37.67;36.27;;;24.80;99.90;;;;;;5051126;28;20444;-57
2023/09/18 00:35:45;;;;;;;38.33;36.80;;;24.70;99.90;;;;;;5051128;28;20472;-57
2023/09/18 00:38:12;;;;;;;38.33;36.73;;;24.70;99.90;;;;;;5041404;28;20907;-56
2023/09/18 00:40:39;;;;;;;39.40;37.67;;;24.70;99.90;;;;;;5050956;28;20452;-57
2023/09/18 00:43:08;;;;;;;41.27;39.13;;;24.70;99.90;;;;;;5051050;28;20551;-56
2023/09/18 00:45:39;;;;;;;38.30;36.90;;;24.70;99.90;;;;;;5047812;28;20484;-56
2023/09/18 00:48:06;;;;;;;38.60;37.10;;;24.70;99.90;;;;;;5051043;28;20471;-56
2023/09/18 00:50:33;;;;;;;39.53;37.97;;;24.70;99.90;;;;;;5050826;28;20468;-55
2023/09/18 00:53:01;;;;;;;38.87;37.37;;;24.70;99.90;;;;;;5050896;28;20468;-54
2023/09/18 00:55:28;;;;;;;38.27;36.70;;;24.70;99.90;;;;;;5048564;28;20491;-56
2023/09/18 00:57:56;;;;;;;38.43;36.90;;;24.60;99.90;;;;;;5034560;28;20507;-54
2023/09/18 01:00:24;;;;;;;38.33;36.93;;;24.60;99.90;;;;;;5050969;28;20854;-56
2023/09/18 01:02:51;;;;;;;38.20;36.60;;;24.60;99.90;;;;;;5050903;28;20468;-52
2023/09/18 01:05:20;;;;;;;38.40;36.80;;;24.60;99.90;;;;;;5050167;28;20956;-56
2023/09/18 01:07:47;;;;;;;40.00;38.10;;;24.60;99.90;;;;;;5039067;28;20491;-52
2023/09/18 01:10:16;;;;;;;37.93;36.33;;;24.60;99.90;;;;;;5037478;28;20454;-53
2023/09/18 01:12:47;;;;;;;37.37;35.97;;;24.60;99.90;;;;;;5036675;28;20552;-53
2023/09/18 01:15:22;;;;;;;38.20;36.47;;;24.50;99.90;;;;;;5050804;28;20860;-56
2023/09/18 01:17:51;;;;;;;36.97;35.60;;;24.50;99.90;;;;;;5050595;28;20475;-56
2023/09/18 01:20:18;;;;;;;37.90;36.40;;;24.50;99.90;;;;;;5050699;28;20468;-53
2023/09/18 01:22:46;;;;;;;38.63;36.70;;;24.50;99.90;;;;;;5044265;28;20999;-55
2023/09/18 01:25:13;;;;;;;41.07;39.37;;;24.50;99.90;;;;;;5050615;28;20440;-55
2023/09/18 01:27:40;;;;;;;38.63;36.73;;;24.50;99.90;;;;;;5050480;28;20476;-55
2023/09/18 01:30:08;;;;;;;36.60;35.10;;;24.50;99.90;;;;;;5046890;28;20969;-54
2023/09/18 01:32:37;;;;;;;38.77;37.27;;;24.50;99.90;;;;;;5050145;28;20488;-55
2023/09/18 01:35:07;;;;;;;40.63;39.13;;;24.40;99.90;;;;;;5053995;28;20436;-56
2023/09/18 01:37:36;;;;;;;38.20;36.30;;;24.40;99.90;;;;;;5053909;28;20563;-52
2023/09/18 01:40:06;;;;;;;37.67;36.17;;;24.40;99.90;;;;;;5051019;28;20443;-56
2023/09/18 01:42:34;;;;;;;39.37;37.97;;;24.40;99.90;;;;;;5050520;28;20900;-55
2023/09/18 01:45:01;;;;;;;40.27;38.40;;;24.40;99.90;;;;;;5053679;28;20472;-54
2023/09/18 01:47:28;;;;;;;37.87;36.30;;;24.40;99.90;;;;;;5054005;28;20852;-54
2023/09/18 01:49:55;;;;;;;38.03;36.43;;;24.40;99.90;;;;;;5049571;28;20444;-57
2023/09/18 01:52:22;;;;;;;38.10;36.50;;;24.30;99.90;;;;;;5053625;28;20967;-56
2023/09/18 01:54:50;;;;;;;40.40;38.90;;;24.30;99.90;;;;;;5053428;28;20468;-54
2023/09/18 01:57:18;;;;;;;37.70;36.00;;;24.30;99.90;;;;;;5053524;28;20508;-55
2023/09/18 01:59:45;;;;;;;42.00;40.30;;;24.30;99.90;;;;;;5047857;28;20484;-54
2023/09/18 02:02:12;;;;;;;40.63;38.83;;;24.30;99.90;;;;;;5053559;28;21033;-55
2023/09/18 02:04:39;;;;;;;38.20;36.70;;;24.30;99.90;;;;;;5053231;28;20441;-54
2023/09/18 02:07:06;;;;;;;40.10;38.40;;;24.30;99.90;;;;;;5053458;28;21003;-55
2023/09/18 02:09:33;;;;;;;40.70;39.10;;;24.30;99.90;;;;;;5049484;28;20475;-56
2023/09/18 02:12:00;;;;;;;39.40;37.87;;;24.30;99.90;;;;;;5053369;28;20495;-55
2023/09/18 02:14:31;;;;;;;40.73;39.00;;;24.30;99.90;;;;;;5053322;28;20472;-54
2023/09/18 02:16:58;;;;;;;39.20;37.70;;;24.30;99.90;;;;;;5053162;28;20823;-53
2023/09/18 02:19:26;;;;;;;39.40;37.80;;;24.30;99.90;;;;;;5049645;28;20480;-57
2023/09/18 02:21:52;;;;;;;40.30;38.80;;;24.30;99.90;;;;;;5052929;28;20534;-53
2023/09/18 02:24:20;;;;;;;40.17;38.70;;;24.20;99.90;;;;;;5053081;28;20476;-56
2023/09/18 02:26:46;;;;;;;40.23;38.63;;;24.30;99.90;;;;;;5053199;28;20853;-50
2023/09/18 02:29:14;;;;;;;38.97;37.13;;;24.20;99.90;;;;;;5049769;28;21176;-52
2023/09/18 02:31:43;;;;;;;39.40;37.90;;;24.20;99.90;;;;;;5052756;28;20502;-51
2023/09/18 02:34:09;;;;;;;39.67;37.97;;;24.20;99.90;;;;;;5052787;28;20440;-54
2023/09/18 02:36:36;;;;;;;40.13;38.10;;;24.20;99.90;;;;;;5052854;28;20827;-53
2023/09/18 02:39:03;;;;;;;39.43;37.83;;;24.20;99.90;;;;;;5049722;28;20526;-51
2023/09/18 02:41:30;;;;;;;40.20;38.70;;;24.20;99.90;;;;;;5052761;28;20492;-54
2023/09/18 02:43:57;;;;;;;38.97;37.37;;;24.20;99.90;;;;;;5052365;28;20479;-51
2023/09/18 02:46:24;;;;;;;38.17;36.57;;;24.20;99.90;;;;;;5053069;28;20476;-52
2023/09/18 02:48:52;;;;;;;40.00;38.47;;;24.20;99.90;;;;;;5044314;28;20479;-52
2023/09/18 02:51:19;;;;;;;38.10;36.50;;;24.20;99.90;;;;;;5052554;28;20894;-52
2023/09/18 02:53:46;;;;;;;39.57;37.77;;;24.10;99.90;;;;;;5052366;28;20523;-50
2023/09/18 02:56:13;;;;;;;40.50;38.97;;;24.10;99.90;;;;;;5042763;28;20459;-52
2023/09/18 02:58:40;;;;;;;41.10;39.60;;;24.10;99.90;;;;;;5044457;28;20515;-54
2023/09/18 03:01:08;;;;;;;42.40;40.70;;;24.10;99.90;;;;;;5052452;28;20492;-52
2023/09/18 03:03:35;;;;;;;40.60;38.80;;;24.10;99.90;;;;;;5052202;28;20900;-55
2023/09/18 03:06:04;;;;;;;43.33;41.73;;;24.10;99.90;;;;;;5046953;28;20987;-52
2023/09/18 03:08:31;;;;;;;39.90;38.50;;;24.10;99.90;;;;;;5052431;28;20800;-51
2023/09/18 03:10:58;;;;;;;42.43;40.60;;;24.10;99.90;;;;;;5052027;28;20908;-53
2023/09/18 03:13:28;;;;;;;41.50;39.33;;;24.10;99.90;;;;;;5052110;28;20896;-52
2023/09/18 03:15:56;;;;;;;40.60;39.07;;;24.10;99.90;;;;;;5047220;28;20477;-53
2023/09/18 03:18:23;;;;;;;41.23;39.23;;;24.10;99.90;;;;;;5052153;28;20502;-50
2023/09/18 03:20:49;;;;;;;42.33;40.63;;;24.10;99.90;;;;;;5051777;28;20521;-51
2023/09/18 03:23:18;;;;;;;41.60;39.70;;;24.10;99.90;;;;;;5051985;28;20525;-53
2023/09/18 03:25:45;;;;;;;39.70;38.10;;;24.10;99.90;;;;;;5042165;28;20866;-52
2023/09/18 03:28:12;;;;;;;43.77;41.53;;;24.10;99.90;;;;;;5033193;28;20476;-51
2023/09/18 03:30:39;;;;;;;41.80;40.20;;;24.10;99.90;;;;;;5051743;28;20523;-51
2023/09/18 03:33:05;;;;;;;45.53;43.27;;;24.10;99.90;;;;;;5047189;28;20452;-50
2023/09/18 03:35:32;;;;;;;42.73;41.03;;;24.10;99.90;;;;;;5051967;28;20474;-54
2023/09/18 03:37:59;;;;;;;43.13;41.30;;;24.00;99.90;;;;;;5051662;28;20507;-51
2023/09/18 03:40:27;;;;;;;44.50;42.40;;;24.00;99.90;;;;;;5051821;28;20951;-50
2023/09/18 03:42:54;;;;;;;42.23;40.73;;;24.00;99.90;;;;;;5044816;28;20487;-52
2023/09/18 03:45:21;;;;;;;42.97;40.93;;;24.00;99.90;;;;;;5046192;28;20479;-55
2023/09/18 03:47:49;;;;;;;42.23;40.30;;;24.00;99.90;;;;;;5051545;28;20502;-52
2023/09/18 03:50:16;;;;;;;41.53;39.93;;;24.00;99.90;;;;;;5051568;28;20635;-52
2023/09/18 03:52:43;;;;;;;41.87;40.27;;;24.00;99.90;;;;;;5047125;28;20504;-52
2023/09/18 03:55:11;;;;;;;41.17;39.50;;;24.00;99.90;;;;;;5046572;28;20515;-51
2023/09/18 03:57:40;;;;;;;43.27;41.40;;;24.00;99.90;;;;;;5046353;28;21029;-52
2023/09/18 04:00:08;;;;;;;44.97;43.27;;;24.00;99.90;;;;;;5051397;28;20464;-53
2023/09/18 04:02:35;;;;;;;45.47;43.73;;;24.00;99.90;;;;;;5047816;28;20473;-52
2023/09/18 04:05:03;;;;;;;45.93;44.30;;;24.00;99.90;;;;;;5035038;28;20483;-54
2023/09/18 04:07:31;;;;;;;47.70;45.80;;;24.00;99.90;;;;;;5051273;28;20447;-54
2023/09/18 04:09:58;;;;;;;49.27;47.37;;;24.00;99.90;;;;;;5051341;28;20482;-51
2023/09/18 04:12:25;;;;;;;49.80;47.70;;;24.00;99.90;;;;;;5049340;28;20496;-52
2023/09/18 04:14:53;;;;;;;49.47;47.50;;;24.00;99.90;;;;;;5046616;28;20487;-51
2023/09/18 04:17:20;;;;;;;50.10;48.20;;;24.00;99.90;;;;;;5051242;28;20543;-55
2023/09/18 04:19:48;;;;;;;47.60;45.80;;;24.00;99.90;;;;;;5051074;28;20515;-50
2023/09/18 04:22:15;;;;;;;47.70;45.60;;;24.00;99.90;;;;;;5080584;22;20996;-65
2023/09/18 04:24:42;;;;;;;46.40;43.90;;;24.00;99.90;;;;;;5059253;28;20866;-66
2023/09/18 04:27:09;;;;;;;48.80;46.80;;;24.00;99.90;;;;;;5062989;28;20467;-65
2023/09/18 04:29:36;;;;;;;54.13;51.90;;;24.00;99.90;;;;;;5063514;28;20431;-68
2023/09/18 04:32:06;;;;;;;54.87;52.43;;;24.00;99.90;;;;;;5059783;28;20520;-68
2023/09/18 04:34:34;;;;;;;55.77;53.37;;;24.10;99.90;;;;;;5041440;28;20448;-63
2023/09/18 04:37:03;;;;;;;54.20;52.00;;;24.20;99.90;;;;;;5051526;28;20923;-64
2023/09/18 04:39:33;;;;;;;53.57;51.33;;;24.20;99.90;;;;;;5052310;28;20475;-65
2023/09/18 04:42:04;;;;;;;53.50;51.30;;;24.30;99.90;;;;;;5036698;28;20473;-65
2023/09/18 04:44:31;;;;;;;53.83;51.43;;;24.50;99.90;;;;;;5038952;28;20470;-65
2023/09/18 04:46:59;;;;;;;54.47;52.40;;;24.60;99.90;;;;;;5051069;28;20439;-67
2023/09/18 04:49:28;;;;;;;56.70;54.30;;;24.70;99.90;;;;;;5051970;28;20472;-62
2023/09/18 04:51:55;;;;;;;57.40;55.10;;;24.80;99.90;;;;;;5040777;28;20831;-66
2023/09/18 04:54:22;;;;;;;59.47;56.97;;;24.90;99.90;;;;;;5052627;28;20483;-67
2023/09/18 04:56:49;;;;;;;60.03;57.73;;;25.10;99.90;;;;;;5052832;28;20436;-66
2023/09/18 04:59:16;;;;;;;55.03;52.90;;;25.20;99.90;;;;;;5049577;28;20471;-67
2023/09/18 05:01:43;;;;;;;55.13;52.93;;;25.30;99.90;;;;;;5051738;28;20496;-64
2023/09/18 05:04:11;;;;;;;55.50;53.40;;;25.40;99.90;;;;;;5051952;28;20455;-60
2023/09/18 05:06:40;;;;;;;56.20;53.77;;;25.50;99.90;;;;;;5045441;28;20445;-62
2023/09/18 05:09:07;;;;;;;56.53;54.33;;;25.60;99.90;;;;;;5039299;28;20451;-60
2023/09/18 05:11:34;;;;;;;55.80;53.50;;;25.70;99.90;;;;;;5055141;28;20495;-62
2023/09/18 05:14:01;;;;;;;60.27;57.67;;;25.80;99.90;;;;;;5054810;28;20479;-63
2023/09/18 05:16:28;;;;;;;59.70;57.40;;;25.90;99.90;;;;;;5044599;28;20507;-62
2023/09/18 05:18:55;;;;;;;54.70;52.40;;;26.00;99.90;;;;;;5051940;28;20480;-62
2023/09/18 05:21:24;;;;;;;57.23;54.33;;;26.10;99.90;;;;;;5054386;28;20476;-61
2023/09/18 05:23:53;;;;;;;58.10;55.70;;;26.10;99.90;;;;;;5054151;28;20444;-61
2023/09/18 05:26:23;;;;;;;59.87;57.40;;;26.20;99.90;;;;;;5047952;28;20547;-62
2023/09/18 05:28:50;;;;;;;57.70;55.50;;;26.30;99.90;;;;;;5054493;28;20440;-62
2023/09/18 05:31:17;;;;;;;57.60;54.90;;;26.30;99.90;;;;;;5054149;28;20438;-63
2023/09/18 05:33:44;;;;;;;57.57;55.30;;;26.30;99.90;;;;;;5053879;28;20433;-65
2023/09/18 05:36:11;;;;;;;56.80;54.63;;;26.30;99.90;;;;;;5044171;28;20495;-63
2023/09/18 05:38:37;;;;;;;58.80;56.40;;;26.30;99.90;;;;;;5054890;28;20584;-64
2023/09/18 05:41:06;;;;;;;55.70;53.60;;;26.40;99.90;;;;;;5053979;28;20479;-64
2023/09/18 05:43:33;;;;;;;56.63;54.57;;;26.50;99.90;;;;;;5053753;28;20492;-59
2023/09/18 05:45:59;;;;;;;57.00;54.77;;;26.50;99.90;;;;;;5044888;28;20485;-65
2023/09/18 05:48:26;;;;;;;58.73;56.43;;;26.60;99.90;;;;;;5055208;28;20467;-62
2023/09/18 05:50:54;;;;;;;59.27;56.93;;;26.60;99.90;;;;;;5053783;28;20947;-64
2023/09/18 05:53:21;;;;;;;60.40;58.10;;;26.60;99.90;;;;;;5053592;28;20468;-62
2023/09/18 05:55:48;;;;;;;57.87;55.43;;;26.60;99.90;;;;;;5044952;28;20446;-60
2023/09/18 05:58:19;;;;;;;60.40;58.03;;;26.60;99.90;;;;;;5040001;28;20508;-63
2023/09/18 06:00:46;;;;;;;58.00;55.77;;;26.60;99.90;;;;;;5054480;28;20455;-60
2023/09/18 06:03:14;;;;;;;60.33;57.53;;;26.70;99.90;;;;;;5045790;28;20468;-61
2023/09/18 06:05:42;;;;;;;58.90;56.70;;;26.60;99.90;;;;;;5053830;28;20857;-61
2023/09/18 06:08:09;;;;;;;58.43;56.20;;;26.70;99.90;;;;;;5053562;28;20450;-61
2023/09/18 06:10:36;;;;;;;59.43;57.20;;;26.60;99.90;;;;;;5045622;28;20450;-63
2023/09/18 06:13:04;;;;;;;60.00;57.60;;;26.70;99.90;;;;;;5052200;28;20460;-62
2023/09/18 06:15:32;;;;;;;63.90;61.30;;;26.70;99.90;;;;;;5053617;28;21016;-66
2023/09/18 06:17:59;;;;;;;58.57;56.57;;;26.70;99.90;;;;;;5052924;28;20525;-62
2023/09/18 06:20:26;;;;;;;60.27;57.80;;;26.70;99.90;;;;;;5050244;28;20498;-59
2023/09/18 06:22:53;;;;;;;58.87;56.57;;;26.80;99.90;;;;;;5042457;28;20514;-62
2023/09/18 06:25:20;;;;;;;60.07;57.80;;;26.80;99.90;;;;;;5053427;28;20444;-63
2023/09/18 06:27:47;;;;;;;58.37;56.27;;;26.80;99.90;;;;;;5053143;28;20480;-63
2023/09/18 06:30:14;;;;;;;60.03;57.73;;;26.80;99.90;;;;;;5051682;28;20480;-63
2023/09/18 06:32:42;;;;;;;59.60;56.97;;;26.80;99.90;;;;;;5049717;28;20496;-63
2023/09/18 06:35:09;;;;;;;56.97;54.80;;;26.80;99.90;;;;;;5037521;28;20954;-61
2023/09/18 06:37:36;;;;;;;57.93;55.77;;;26.80;99.90;;;;;;5053227;28;20523;-63
2023/09/18 06:40:05;;;;;;;57.47;55.47;;;26.80;99.90;;;;;;5052889;28;20542;-63
2023/09/18 06:42:32;;;;;;;58.30;56.10;;;26.80;99.90;;;;;;5047719;28;20884;-61
2023/09/18 06:45:01;;;;;;;58.20;55.87;;;26.80;99.90;;;;;;5038089;28;20470;-58
2023/09/18 06:47:28;;;;;;;56.63;54.57;;;26.80;99.90;;;;;;5052998;28;20448;-63
2023/09/18 06:49:56;;;;;;;57.83;55.57;;;26.90;99.90;;;;;;5053021;28;20468;-62
2023/09/18 06:52:23;;;;;;;59.03;56.83;;;26.90;99.90;;;;;;5043311;28;20512;-64
2023/09/18 06:54:50;;;;;;;60.40;57.93;;;26.90;99.90;;;;;;5052757;28;20492;-63
2023/09/18 06:57:17;;;;;;;55.07;52.97;;;26.90;99.90;;;;;;5053179;28;20468;-60
2023/09/18 06:59:44;;;;;;;60.03;57.90;;;27.00;99.90;;;;;;5053979;28;20514;-63
2023/09/18 07:02:14;;;;;;;53.37;51.37;;;27.00;99.90;;;;;;5045183;28;20467;-56
2023/09/18 07:04:44;;;;;;;60.03;57.73;;;27.00;99.90;;;;;;5052746;28;20498;-58
2023/09/18 07:07:13;;;;;;;59.30;57.00;;;27.00;99.90;;;;;;5037069;28;20441;-60
2023/09/18 07:09:41;;;;;;;56.27;54.27;;;27.00;99.90;;;;;;5052515;28;20432;-59
2023/09/18 07:12:08;;;;;;;57.00;54.90;;;27.10;99.90;;;;;;5046849;28;20985;-60
2023/09/18 07:14:35;;;;;;;56.40;54.30;;;27.10;99.90;;;;;;5048330;28;20453;-59
2023/09/18 07:17:02;;;;;;;58.20;56.00;;;27.00;99.90;;;;;;5052413;28;20440;-58
2023/09/18 07:19:29;;;;;;;60.90;58.70;;;27.00;99.90;;;;;;5052309;28;20480;-56
2023/09/18 07:21:56;;;;;;;57.90;55.60;;;27.00;99.90;;;;;;5048226;28;20500;-62
2023/09/18 07:24:25;;;;;;;57.33;55.23;;;27.00;99.90;;;;;;5052002;28;20506;-56
2023/09/18 07:26:52;;;;;;;56.87;54.30;;;27.10;99.90;;;;;;5051997;28;20947;-60
2023/09/18 07:29:19;;;;;;;56.40;54.00;;;27.10;99.90;;;;;;5051294;28;20785;-62
2023/09/18 07:31:47;;;;;;;53.83;51.63;;;27.10;99.90;;;;;;5047010;28;20551;-59
2023/09/18 07:34:16;;;;;;;55.27;53.07;;;27.10;99.90;;;;;;5051755;28;20948;-56
2023/09/18 07:36:43;;;;;;;53.20;51.20;;;27.00;99.90;;;;;;5052046;28;20472;-68
2023/09/18 07:39:11;;;;;;;55.07;52.70;;;27.00;99.90;;;;;;5051840;28;20526;-63
2023/09/18 07:41:40;;;;;;;56.03;53.97;;;27.10;99.90;;;;;;5040925;28;20473;-63
2023/09/18 07:44:07;;;;;;;57.80;55.70;;;27.10;99.90;;;;;;5047490;28;20943;-52
2023/09/18 07:46:34;;;;;;;54.00;52.10;;;27.00;99.90;;;;;;5051708;28;20472;-61
2023/09/18 07:49:01;;;;;;;52.23;50.23;;;27.00;99.90;;;;;;5051681;28;20467;-46
2023/09/18 07:51:29;;;;;;;57.97;55.73;;;27.00;99.90;;;;;;5043423;28;20487;-57
2023/09/18 07:53:56;;;;;;;55.20;52.80;;;27.00;99.90;;;;;;5049398;28;20436;-58
2023/09/18 07:56:23;;;;;;;51.97;50.13;;;27.00;99.90;;;;;;5051587;28;20475;-55
2023/09/18 07:58:52;;;;;;;53.50;51.50;;;27.00;99.90;;;;;;5051471;28;20479;-53
2023/09/18 08:01:22;;;;;;;53.13;50.90;;;27.00;99.90;;;;;;5044486;28;20481;-51
2023/09/18 08:03:49;;;;;;;54.87;52.67;;;27.00;99.90;;;;;;5036499;28;20449;-50
2023/09/18 08:06:18;;;;;;;56.50;54.20;;;27.00;99.90;;;;;;5051518;28;20440;-59
2023/09/18 08:08:45;;;;;;;54.00;51.67;;;27.00;99.90;;;;;;5051324;28;20444;-55
2023/09/18 08:11:12;;;;;;;54.20;52.30;;;27.00;99.90;;;;;;5048611;28;20440;-68
2023/09/18 08:13:39;;;;;;;56.47;54.43;;;26.90;99.90;;;;;;5047067;28;20481;-50
2023/09/18 08:16:08;;;;;;;60.43;58.17;;;27.40;99.90;;;;;;5051241;28;20475;-49
2023/09/18 08:18:35;;;;;;;55.50;53.40;;;27.50;99.70;;;;;;5051491;28;20440;-48
2023/09/18 08:21:02;;;;;;;56.20;54.03;;;27.50;98.60;;;;;;5046670;28;20602;-47
2023/09/18 08:23:29;;;;;;;53.93;51.97;;;27.50;98.50;;;;;;5050950;28;20468;-48
2023/09/18 08:25:58;;;;;;;57.37;54.90;;;27.50;98.30;;;;;;5051117;28;20452;-59
2023/09/18 08:28:25;;;;;;;59.50;57.10;;;27.50;98.30;;;;;;5049812;28;20445;-56
2023/09/18 08:30:51;;;;;;;57.10;54.90;;;27.50;98.30;;;;;;5036518;28;20481;-61
2023/09/18 08:33:21;;;;;;;56.03;54.07;;;27.60;98.00;;;;;;5050881;28;20495;-62
2023/09/18 08:35:49;;;;;;;55.83;53.80;;;27.50;98.20;;;;;;5047678;28;20479;-59
2023/09/18 08:38:16;;;;;;;55.30;53.30;;;27.50;98.00;;;;;;5051074;28;20952;-60
2023/09/18 08:40:43;;;;;;;54.50;52.40;;;27.50;97.80;;;;;;5052685;28;20476;-53
2023/09/18 08:43:13;;;;;;;54.27;52.17;;;27.50;97.60;;;;;;5054620;28;20885;-54
2023/09/18 08:45:47;;;;;;;57.10;55.00;;;27.50;97.40;;;;;;5055122;28;20946;-51
2023/09/18 08:48:14;;;;;;;53.53;51.57;;;27.50;97.20;;;;;;5040613;28;20471;-51
2023/09/18 08:50:43;;;;;;;53.17;51.10;;;27.40;96.80;;;;;;5054784;28;20468;-57
2023/09/18 08:53:10;;;;;;;55.60;53.50;;;27.40;97.00;;;;;;5054706;28;20539;-50
2023/09/18 08:55:37;;;;;;;54.63;52.57;;;27.40;96.80;;;;;;5054925;28;20472;-52
2023/09/18 08:58:04;;;;;;;53.87;51.50;;;27.40;96.70;;;;;;5054866;28;20453;-50
2023/09/18 09:00:31;;;;;;;54.33;52.33;;;27.50;97.20;;;;;;5054708;28;20507;-56
2023/09/18 09:02:59;;;;;;;53.27;51.27;;;27.50;96.90;;;;;;5054298;28;20594;-52
2023/09/18 09:05:26;;;;;;;53.57;51.57;;;27.50;96.90;;;;;;5054620;28;20447;-55
2023/09/18 09:07:54;;;;;;;55.07;53.07;;;27.50;96.70;;;;;;5054456;28;20479;-52
2023/09/18 09:10:21;;;;;;;55.17;53.07;;;27.50;96.80;;;;;;5054601;28;20468;-54
2023/09/18 09:12:50;;;;;;;54.00;52.00;;;27.40;96.70;;;;;;5054345;28;20499;-53
2023/09/18 09:15:17;;;;;;;53.50;51.60;;;27.40;96.70;;;;;;5039109;28;20954;-52
2023/09/18 09:17:45;;;;;;;56.30;54.10;;;27.40;96.40;;;;;;5054417;28;20441;-51
2023/09/18 09:20:13;;;;;;;54.73;52.33;;;27.40;96.80;;;;;;5054237;28;20475;-56
2023/09/18 09:22:40;;;;;;;55.27;51.90;;;27.40;97.10;;;;;;5050737;28;20496;-57
2023/09/18 09:25:28;;;;;;;53.03;50.53;;;27.50;97.60;;;;;;5052529;28;20961;-54
2023/09/18 09:27:55;;;;;;;53.93;50.90;;;27.50;97.90;;;;;;5054179;28;20454;-52
2023/09/18 09:30:28;;;;;;;55.00;51.73;;;27.40;99.60;;;;;;5041479;28;20479;-56
2023/09/18 09:32:59;;;;;;;41.17;39.07;;;27.50;99.30;;;;;;5049358;28;20488;-56
2023/09/18 09:35:29;;;;;;;44.53;42.03;;;27.50;99.20;;;;;;5053797;28;21184;-55
2023/09/18 09:38:00;;;;;;;45.43;42.90;;;27.50;98.80;;;;;;5054019;28;20443;-58
2023/09/18 09:40:31;;;;;;;44.80;42.40;;;27.40;98.20;;;;;;5037945;28;20628;-52
2023/09/18 09:43:05;;;;;;;45.27;43.23;;;27.40;98.00;;;;;;5049163;28;20539;-50
2023/09/18 09:45:35;;;;;;;41.77;39.90;;;27.40;97.50;;;;;;5053897;28;20444;-49
2023/09/18 09:48:06;;;;;;;41.00;39.00;;;27.30;97.30;;;;;;5053955;28;20803;-49
2023/09/18 09:50:45;;;;;;;45.20;43.30;;;27.30;97.10;;;;;;5053730;28;20432;-56
2023/09/18 09:53:14;;;;;;;40.07;38.37;;;27.20;97.00;;;;;;5052836;28;20863;-52
2023/09/18 09:55:43;;;;;;;41.30;39.50;;;27.10;97.00;;;;;;5053649;28;20436;-51
2023/09/18 09:58:13;;;;;;;35.37;33.80;;;27.00;97.00;;;;;;5053313;28;20824;-58
2023/09/18 10:00:49;;;;;;;37.50;35.90;;;26.90;97.00;;;;;;5053511;28;20480;-55
2023/09/18 10:03:20;;;;;;;36.33;34.83;;;26.80;97.20;;;;;;5037318;28;20460;-58
2023/09/18 10:05:50;;;;;;;38.10;36.40;;;26.70;97.40;;;;;;5053716;28;20668;-55
2023/09/18 10:08:23;;;;;;;38.77;37.10;;;26.60;97.40;;;;;;5037790;28;20483;-50
2023/09/18 10:10:53;;;;;;;38.33;36.73;;;26.50;97.40;;;;;;5053305;28;20433;-52
2023/09/18 10:13:31;;;;;;;38.73;37.13;;;26.40;97.50;;;;;;5051986;28;20456;-50
2023/09/18 10:16:06;;;;;;;41.20;39.50;;;26.30;97.70;;;;;;5043714;28;20929;-54
2023/09/18 10:18:44;;;;;;;38.10;36.50;;;26.20;97.70;;;;;;5035795;28;20459;-51
2023/09/18 10:21:31;;;;;;;34.40;33.10;;;26.10;98.70;;;;;;5053019;28;20488;-57
2023/09/18 10:24:06;;;;;;;38.97;36.97;;;26.10;98.90;;;;;;5069900;22;20491;-51
2023/09/18 10:26:40;;;;;;;36.53;35.03;;;25.90;98.90;;;;;;5065756;28;20427;-52
2023/09/18 10:29:11;;;;;;;35.83;34.33;;;25.70;99.50;;;;;;5063389;28;20941;-53
2023/09/18 10:31:40;;;;;;;37.37;35.93;;;25.70;99.20;;;;;;5061800;28;20935;-56
2023/09/18 10:34:09;;;;;;;39.27;37.77;;;25.70;99.70;;;;;;5061575;28;20468;-54
2023/09/18 10:36:39;;;;;;;41.43;39.73;;;25.60;99.20;;;;;;5064847;28;20456;-51
2023/09/18 10:39:12;;;;;;;37.10;35.60;;;25.60;98.90;;;;;;5063339;28;20534;-54
2023/09/18 10:41:41;;;;;;;39.37;37.87;;;25.50;99.00;;;;;;5064575;28;20513;-50
2023/09/18 10:44:10;;;;;;;40.57;38.83;;;25.40;99.20;;;;;;5061719;28;20880;-58
2023/09/18 10:46:38;;;;;;;37.50;36.10;;;25.40;99.30;;;;;;5060544;28;20447;-57
2023/09/18 10:49:08;;;;;;;39.93;38.17;;;25.40;99.70;;;;;;5062815;28;20444;-51
2023/09/18 10:51:36;;;;;;;39.57;37.97;;;25.40;99.30;;;;;;5064371;28;20524;-51
2023/09/18 10:54:04;;;;;;;38.80;37.20;;;25.40;99.10;;;;;;5062275;28;20478;-48
2023/09/18 10:56:33;;;;;;;37.40;36.00;;;25.40;98.70;;;;;;5061077;28;20472;-50
2023/09/18 10:59:07;;;;;;;37.60;36.10;;;25.40;98.60;;;;;;5061987;28;20440;-52
2023/09/18 11:01:36;;;;;;;37.10;35.50;;;25.40;99.10;;;;;;5057865;28;20985;-50
2023/09/18 11:04:06;;;;;;;39.27;37.67;;;25.40;99.00;;;;;;5061947;28;20456;-49
2023/09/18 11:07:09;;;;;;;40.13;38.23;;;25.40;98.60;;;;;;5064176;28;20444;-49
2023/09/18 11:09:44;;;;;;;41.83;40.03;;;25.30;98.80;;;;;;5054960;28;20447;-52
2023/09/18 11:12:12;;;;;;;37.20;35.70;;;25.40;99.20;;;;;;5062538;28;20448;-56
2023/09/18 11:14:49;;;;;;;37.83;36.33;;;25.40;98.70;;;;;;5063913;28;20435;-54
2023/09/18 11:17:36;;;;;;;40.13;38.63;;;25.40;98.90;;;;;;5060608;28;20436;-48
2023/09/18 11:20:08;;;;;;;36.53;35.13;;;25.40;98.80;;;;;;5061653;28;20475;-52
2023/09/18 11:22:36;;;;;;;37.90;36.40;;;25.40;98.40;;;;;;5063539;28;20970;-49
2023/09/18 11:25:34;;;;;;;38.40;36.90;;;25.40;98.30;;;;;;5064567;28;20494;-56
2023/09/18 11:28:01;;;;;;;39.63;38.03;;;25.40;98.70;;;;;;5061084;28;20598;-52
2023/09/18 11:30:30;;;;;;;40.20;38.60;;;25.40;99.10;;;;;;5063534;28;20443;-52
2023/09/18 11:32:57;;;;;;;43.80;42.00;;;25.40;99.30;;;;;;5062888;28;20561;-50
2023/09/18 11:35:26;;;;;;;40.40;38.83;;;25.40;99.30;;;;;;5059742;28;20480;-51
2023/09/18 11:38:14;;;;;;;40.00;38.10;;;25.40;98.90;;;;;;5060239;28;20523;-51
2023/09/18 11:40:42;;;;;;;39.27;37.67;;;25.40;98.50;;;;;;5056688;28;20515;-48
2023/09/18 11:43:29;;;;;;;41.37;39.77;;;25.50;98.30;;;;;;5061779;28;20468;-48
2023/09/18 11:45:59;;;;;;;38.73;37.13;;;25.50;97.80;;;;;;5063007;28;20946;-50
2023/09/18 11:48:29;;;;;;;38.70;37.10;;;25.50;98.50;;;;;;5051564;28;20448;-51
2023/09/18 11:50:58;;;;;;;38.87;37.37;;;25.50;98.80;;;;;;5056723;28;20448;-50
2023/09/18 11:53:27;;;;;;;42.00;40.40;;;25.50;98.90;;;;;;5063064;28;21200;-48
2023/09/18 11:55:55;;;;;;;37.73;36.23;;;25.50;99.00;;;;;;5063222;28;20855;-47
2023/09/18 11:58:23;;;;;;;38.87;37.27;;;25.50;99.20;;;;;;5055591;28;20530;-50
2023/09/18 12:00:50;;;;;;;37.40;35.90;;;25.50;99.30;;;;;;5062942;28;20911;-47
2023/09/18 12:03:25;;;;;;;38.33;36.63;;;25.50;99.40;;;;;;5059609;28;20452;-52
2023/09/18 12:05:57;;;;;;;38.50;36.90;;;25.50;99.40;;;;;;5059809;28;20432;-47
2023/09/18 12:08:26;;;;;;;38.70;36.90;;;25.50;99.50;;;;;;5051990;28;20472;-51
2023/09/18 12:10:53;;;;;;;36.47;34.87;;;25.50;99.50;;;;;;5059295;28;20467;-53
2023/09/18 12:13:20;;;;;;;40.50;38.80;;;25.60;99.60;;;;;;5051339;28;20460;-49
2023/09/18 12:15:48;;;;;;;39.20;37.60;;;25.50;99.60;;;;;;5058969;28;20468;-51
2023/09/18 12:18:16;;;;;;;41.80;40.10;;;25.60;99.60;;;;;;5062345;28;20451;-55
2023/09/18 12:20:48;;;;;;;37.10;35.50;;;25.60;99.60;;;;;;5061078;28;20559;-46
2023/09/18 12:23:15;;;;;;;38.17;36.67;;;25.60;99.80;;;;;;5061755;28;21183;-51
2023/09/18 12:25:45;;;;;;;38.20;36.60;;;25.60;99.50;;;;;;5062911;28;20865;-50
2023/09/18 12:28:14;;;;;;;40.10;38.30;;;25.60;99.50;;;;;;5060508;28;20471;-49
2023/09/18 12:30:41;;;;;;;41.60;39.90;;;25.60;99.60;;;;;;5059417;28;20444;-50
2023/09/18 12:33:08;;;;;;;41.37;39.47;;;25.60;99.50;;;;;;5058777;28;20488;-50
2023/09/18 12:35:35;;;;;;;42.10;40.40;;;25.60;99.60;;;;;;5059321;28;20467;-48